To NAV CANADA Home Page Login to a new session Search on AWWS site Disclaimer Vers la page française équivalente Tips FAQ What's new on the site To the Forecasts and Observations / NOTAM section To "File a Flight Plan" website Publications and other links Update of the User's profile FIC Telephone Numbers My Weather Data Folder Route Weather Data Regional Weather Data Local Weather Data To the Forecasts and Observations / NOTAM section
Request Generated 03/19/2019 at 23:20:08 UTC . Weather information available at that time is displayed.

METAR/TAF

DRYDEN REGIONAL/ON    (show WxCam)

SPECI CYHD 192318Z AUTO 22010G17KT 9SM -RASN FEW019 OVC060 01/M02 A2986 RMK SLP136=
METAR CYHD 192300Z AUTO 22012G17KT 9SM -RA FEW021 BKN055 OVC071 01/M02 A2987 RMK SLP139=
SPECI CYHD 192245Z AUTO 23011G18KT 9SM -RA FEW046 BKN055 OVC068 01/M02 A2988 RMK SLP143=
SPECI CYHD 192224Z AUTO 23012G18KT 9SM OVC070 01/M02 A2989 RMK SLP147=
SPECI CYHD 192211Z AUTO 22014KT 9SM -RA BKN065 OVC076 01/M02 A2990 RMK SLP150=
SPECI CYHD 192204Z AUTO 22013KT 9SM BKN060 OVC077 01/M02 A2991 RMK SLP152=
METAR CYHD 192200Z AUTO 22011G17KT 9SM -RA BKN060 OVC075 01/M02 A2991 RMK SLP153=
SPECI CYHD 192152Z AUTO 22013G18KT 9SM -RA BKN060 BKN075 OVC096 01/M02 A2991 RMK SLP153=
METAR CYHD 192100Z AUTO 22011KT 9SM BKN090 OVC110 02/M02 A2994 RMK SLP161=

TAF CYHD 191946Z 1920/2008 24012KT P6SM SCT015 BKN200 TEMPO 1920/1922
BKN015
FM192200 24012KT 6SM -SNRA OVC025 TEMPO 1922/2001 21/2SM -SN
OVC015
FM200100 24010KT 6SM -SN OVC010 TEMPO 2001/2008 2SM -SN BR OVC006
PROB30 2001/2008 2SM -FZDZ BR OVC005
RMK FCST BASED ON AUTO OBS. NXT FCST BY 200200Z=
Your time UTC time
Weather data provided by Environment Canada and NAV CANADA